Time;durP1;ratioP1;P1;durP2;ratioP2;P2;SDS_P1;SDS_P2;PMS_P1;PMS_P2;Temp;Humidity;BMP_temperature;BMP_pressure;BME280_temperature;BME280_humidity;BME280_pressure;Samples;Min_cycle;Max_cycle;Signal;HPM_P1;HPM_P2
2022/05/04 00:00:45;;;;;;;14.60;4.35;;;3.50;99.90;;;;;;5015462;28;20038;-73
2022/05/04 00:03:11;;;;;;;20.95;4.78;;;3.40;99.90;;;;;;5015500;28;20104;-73
2022/05/04 00:05:37;;;;;;;18.45;4.95;;;3.30;99.90;;;;;;5015292;28;20508;-73
2022/05/04 00:08:03;;;;;;;20.13;4.65;;;3.30;99.90;;;;;;5014655;28;20034;-73
2022/05/04 00:10:30;;;;;;;16.17;4.70;;;3.30;99.90;;;;;;5015468;28;20030;-73
2022/05/04 00:12:57;;;;;;;17.58;5.57;;;3.40;99.90;;;;;;5015023;28;20029;-72
2022/05/04 00:15:22;;;;;;;13.80;4.93;;;3.40;99.90;;;;;;5014654;28;20109;-72
2022/05/04 00:17:48;;;;;;;21.80;5.65;;;3.40;99.90;;;;;;5015383;28;20057;-73
2022/05/04 00:20:14;;;;;;;12.88;4.25;;;3.40;99.90;;;;;;5015206;28;20469;-73
2022/05/04 00:22:40;;;;;;;26.13;4.70;;;3.40;99.90;;;;;;5014888;28;20028;-72
2022/05/04 00:25:06;;;;;;;19.88;5.03;;;3.40;99.90;;;;;;5014920;28;20108;-72
2022/05/04 00:27:33;;;;;;;17.15;4.72;;;3.40;99.90;;;;;;5014905;28;20022;-72
2022/05/04 00:29:58;;;;;;;13.27;4.95;;;3.40;99.90;;;;;;5014369;28;20522;-72
2022/05/04 00:32:24;;;;;;;14.35;4.70;;;3.30;99.90;;;;;;5014798;28;20109;-73
2022/05/04 00:34:50;;;;;;;14.93;4.00;;;3.30;99.90;;;;;;5015163;28;20076;-73
2022/05/04 00:37:15;;;;;;;11.40;4.10;;;3.30;99.90;;;;;;5014629;28;20022;-73
2022/05/04 00:39:41;;;;;;;6.57;4.15;;;3.20;99.90;;;;;;5014249;28;20037;-72
2022/05/04 00:42:09;;;;;;;12.07;3.78;;;3.10;99.90;;;;;;5014909;28;20029;-73
2022/05/04 00:44:35;;;;;;;9.68;3.70;;;3.10;99.90;;;;;;5014576;28;20025;-72
2022/05/04 00:47:00;;;;;;;10.70;4.38;;;3.00;99.90;;;;;;5014576;28;20033;-73
2022/05/04 00:49:26;;;;;;;12.88;4.38;;;2.90;99.90;;;;;;5014795;28;20033;-73
2022/05/04 00:51:52;;;;;;;12.32;3.85;;;2.90;99.90;;;;;;5014082;28;20021;-72
2022/05/04 00:54:18;;;;;;;10.75;4.10;;;2.80;99.90;;;;;;5014618;28;20022;-73
2022/05/04 00:56:44;;;;;;;9.43;3.90;;;2.80;99.90;;;;;;5014462;28;20451;-73
2022/05/04 00:59:09;;;;;;;7.38;3.60;;;2.80;99.90;;;;;;5013962;28;20113;-72
2022/05/04 01:01:35;;;;;;;8.35;4.32;;;2.80;99.90;;;;;;5013610;28;20061;-72
2022/05/04 01:04:00;;;;;;;11.80;4.10;;;2.80;99.90;;;;;;5014268;28;20112;-73
2022/05/04 01:06:26;;;;;;;10.75;4.00;;;2.70;99.90;;;;;;5014658;28;20026;-73
2022/05/04 01:08:54;;;;;;;7.60;3.65;;;2.70;99.90;;;;;;5013736;28;20050;-73
2022/05/04 01:11:21;;;;;;;11.07;4.03;;;2.70;99.90;;;;;;5014260;28;20069;-73
2022/05/04 01:14:02;;;;;;;10.85;3.38;;;2.60;99.90;;;;;;5014229;28;20437;-73
2022/05/04 01:16:29;;;;;;;11.57;3.45;;;2.60;99.90;;;;;;5013993;28;20474;-73
2022/05/04 01:18:55;;;;;;;7.70;4.32;;;2.60;99.90;;;;;;5014395;28;20080;-73
2022/05/04 01:21:21;;;;;;;17.02;3.90;;;2.60;99.90;;;;;;5014860;28;20034;-73
2022/05/04 01:23:46;;;;;;;7.70;3.28;;;2.60;99.90;;;;;;5014162;28;20022;-73
2022/05/04 01:26:16;;;;;;;7.90;3.65;;;2.60;99.90;;;;;;5013691;28;20033;-73
2022/05/04 01:28:42;;;;;;;10.43;3.95;;;2.60;99.90;;;;;;5014419;28;20022;-73
2022/05/04 01:31:08;;;;;;;11.05;3.58;;;2.60;99.90;;;;;;5014190;28;20018;-73
2022/05/04 01:33:33;;;;;;;8.43;3.53;;;2.50;99.90;;;;;;5014069;28;20041;-73
2022/05/04 01:35:59;;;;;;;13.73;4.25;;;2.50;99.90;;;;;;5014141;28;20033;-73
2022/05/04 01:38:24;;;;;;;6.63;3.90;;;2.40;99.90;;;;;;5013920;28;20474;-73
2022/05/04 01:40:50;;;;;;;8.45;3.85;;;2.40;99.90;;;;;;5012751;28;20157;-72
2022/05/04 01:43:15;;;;;;;8.73;3.50;;;2.50;99.90;;;;;;5014024;28;20103;-73
2022/05/04 01:45:41;;;;;;;8.82;4.03;;;2.40;99.90;;;;;;5016911;28;20030;-73
2022/05/04 01:48:07;;;;;;;8.40;3.88;;;2.40;99.90;;;;;;5015604;28;20108;-73
2022/05/04 01:50:32;;;;;;;11.27;4.78;;;2.40;99.90;;;;;;5013425;28;20097;-73
2022/05/04 01:52:58;;;;;;;11.73;4.40;;;2.40;99.90;;;;;;5014053;28;20029;-73
2022/05/04 01:55:25;;;;;;;7.97;3.35;;;2.50;99.90;;;;;;5014067;28;20034;-73
2022/05/04 01:57:51;;;;;;;10.60;4.03;;;2.40;99.90;;;;;;5013519;28;20462;-72
2022/05/04 02:00:16;;;;;;;10.13;3.72;;;2.40;99.90;;;;;;5013998;28;20030;-73
2022/05/04 02:02:43;;;;;;;9.65;3.65;;;2.50;99.90;;;;;;5013647;28;20033;-72
2022/05/04 02:05:09;;;;;;;14.25;3.85;;;2.50;99.90;;;;;;5014029;28;20112;-73
2022/05/04 02:07:36;;;;;;;8.90;3.63;;;2.50;99.90;;;;;;5013244;28;20029;-73
2022/05/04 02:10:05;;;;;;;5.82;3.72;;;2.50;99.90;;;;;;5013650;28;20058;-73
2022/05/04 02:12:31;;;;;;;4.30;2.92;;;2.50;99.90;;;;;;5013682;28;20033;-73
2022/05/04 02:14:57;;;;;;;11.15;3.72;;;2.50;99.90;;;;;;5017448;28;20026;-73
2022/05/04 02:17:23;;;;;;;10.80;3.20;;;2.60;99.90;;;;;;5017126;28;20022;-73
2022/05/04 02:19:48;;;;;;;5.15;2.92;;;2.50;99.90;;;;;;5016823;28;20034;-73
2022/05/04 02:22:14;;;;;;;6.28;3.25;;;2.50;99.90;;;;;;5017457;28;20096;-73
2022/05/04 02:24:39;;;;;;;8.18;3.47;;;2.50;99.90;;;;;;5017364;28;20481;-73
2022/05/04 02:27:05;;;;;;;5.85;3.20;;;2.60;99.90;;;;;;5017328;28;20037;-73
2022/05/04 02:29:31;;;;;;;6.85;3.90;;;2.50;99.90;;;;;;5016837;28;20022;-73
2022/05/04 02:31:58;;;;;;;9.45;3.25;;;2.50;99.90;;;;;;5016978;28;20097;-73
2022/05/04 02:34:25;;;;;;;6.72;3.13;;;2.50;99.90;;;;;;5016915;28;20025;-73
2022/05/04 02:39:35;;;;;;;6.75;3.85;;;2.40;99.90;;;;;;5017363;28;20091;-73
2022/05/04 02:42:00;;;;;;;6.43;3.10;;;2.30;99.90;;;;;;5016687;28;20030;-73
2022/05/04 02:44:26;;;;;;;6.65;3.58;;;2.30;99.90;;;;;;5016329;28;20037;-73
2022/05/04 02:46:51;;;;;;;12.25;3.42;;;2.20;99.90;;;;;;5016446;28;20030;-73
2022/05/04 02:49:17;;;;;;;12.65;3.55;;;2.20;99.90;;;;;;5016770;28;20477;-73
2022/05/04 02:51:44;;;;;;;9.43;3.17;;;2.20;99.90;;;;;;5016637;28;20029;-73
2022/05/04 02:54:09;;;;;;;6.05;2.53;;;2.10;99.90;;;;;;5016147;28;20026;-72
2022/05/04 02:56:35;;;;;;;7.93;2.97;;;2.10;99.90;;;;;;5016574;28;20030;-73
2022/05/04 02:59:01;;;;;;;7.03;3.33;;;2.20;99.90;;;;;;5016520;28;20108;-73
2022/05/04 03:04:11;;;;;;;6.75;3.08;;;2.20;99.90;;;;;;5016676;28;20410;-73
2022/05/04 03:06:39;;;;;;;4.57;3.42;;;2.20;99.90;;;;;;5016856;28;20029;-73
2022/05/04 03:09:05;;;;;;;4.72;3.05;;;2.20;99.90;;;;;;5015688;28;20030;-73
2022/05/04 03:14:17;;;;;;;6.00;3.95;;;2.20;99.90;;;;;;5016545;28;20037;-73
2022/05/04 03:16:43;;;;;;;7.25;3.40;;;2.20;99.90;;;;;;5016493;28;20386;-73
2022/05/04 03:19:08;;;;;;;6.03;2.90;;;2.20;99.90;;;;;;5016333;28;20029;-73
2022/05/04 03:21:34;;;;;;;4.63;2.70;;;2.20;99.90;;;;;;5015671;28;20030;-73
2022/05/04 03:24:01;;;;;;;5.38;3.13;;;2.20;99.90;;;;;;5015868;28;20117;-73
2022/05/04 03:26:27;;;;;;;6.13;4.00;;;2.20;99.90;;;;;;5015343;28;20026;-73
2022/05/04 03:28:52;;;;;;;8.88;3.53;;;2.20;99.90;;;;;;5015671;28;20081;-73
2022/05/04 03:31:19;;;;;;;5.40;2.90;;;2.20;99.90;;;;;;5015860;28;20025;-73
2022/05/04 03:33:44;;;;;;;10.07;3.30;;;2.20;99.90;;;;;;5015905;28;20112;-73
2022/05/04 03:36:10;;;;;;;6.22;3.75;;;2.30;99.90;;;;;;5015881;28;20105;-73
2022/05/04 03:38:36;;;;;;;8.15;4.07;;;2.30;99.90;;;;;;5015880;28;20029;-73
2022/05/04 03:41:02;;;;;;;9.10;5.00;;;2.30;99.90;;;;;;5016028;28;20109;-73
2022/05/04 03:43:28;;;;;;;13.98;4.68;;;2.30;99.90;;;;;;5014615;28;20040;-73
2022/05/04 03:45:54;;;;;;;11.80;4.05;;;2.40;99.90;;;;;;5014670;28;20025;-73
2022/05/04 03:48:20;;;;;;;8.27;3.60;;;2.60;99.90;;;;;;5014771;28;20072;-73
2022/05/04 03:50:46;;;;;;;7.90;3.80;;;2.70;99.90;;;;;;5014342;28;20064;-73
2022/05/04 03:53:12;;;;;;;7.65;3.72;;;2.90;99.90;;;;;;5014778;28;20381;-73
2022/05/04 03:55:38;;;;;;;5.85;3.75;;;3.10;99.90;;;;;;5014715;28;20389;-73
2022/05/04 03:58:04;;;;;;;12.65;4.05;;;3.20;99.90;;;;;;5014587;28;20026;-73
2022/05/04 04:00:29;;;;;;;4.63;3.28;;;3.30;99.90;;;;;;5014474;28;20022;-73
2022/05/04 04:02:55;;;;;;;3.25;2.92;;;3.30;99.90;;;;;;5013962;28;20081;-73
2022/05/04 04:05:21;;;;;;;8.50;4.63;;;3.40;99.90;;;;;;5014444;28;20030;-72
2022/05/04 04:07:46;;;;;;;7.05;4.20;;;3.50;99.90;;;;;;5015435;28;20101;-73
2022/05/04 04:10:12;;;;;;;9.32;3.22;;;3.50;99.90;;;;;;5016416;28;20029;-73
2022/05/04 04:12:37;;;;;;;6.30;2.83;;;3.60;99.90;;;;;;5015730;28;20470;-73
2022/05/04 04:15:03;;;;;;;12.07;3.53;;;3.60;99.90;;;;;;5013768;28;20477;-73
2022/05/04 04:17:29;;;;;;;10.18;3.25;;;3.70;99.90;;;;;;5014527;28;20053;-73
2022/05/04 04:22:39;;;;;;;;;;;3.80;99.90;;;;;;5014901;28;20041;-73
2022/05/04 04:25:05;;;;;;;6.97;3.20;;;3.90;99.90;;;;;;5014682;28;19906;-73
2022/05/04 04:27:35;;;;;;;7.63;3.05;;;3.90;99.90;;;;;;5014396;28;20018;-73
2022/05/04 04:30:00;;;;;;;5.05;2.75;;;4.00;99.90;;;;;;5013471;28;20129;-73
2022/05/04 04:32:27;;;;;;;6.55;3.30;;;4.10;99.90;;;;;;5014299;28;20466;-73
2022/05/04 04:34:52;;;;;;;9.75;3.15;;;4.10;99.90;;;;;;5014042;28;20022;-73
2022/05/04 04:37:18;;;;;;;8.98;3.50;;;4.20;99.90;;;;;;5013301;28;20490;-73
2022/05/04 04:39:43;;;;;;;5.30;3.28;;;4.20;99.90;;;;;;5013856;28;20036;-73
2022/05/04 04:42:12;;;;;;;21.10;3.58;;;4.40;99.90;;;;;;4978147;28;1043991;-73
2022/05/04 04:44:38;;;;;;;11.48;3.42;;;4.50;99.90;;;;;;5014633;28;20022;-73
2022/05/04 04:47:04;;;;;;;13.10;4.00;;;4.60;99.90;;;;;;5014935;28;20462;-73
2022/05/04 04:49:29;;;;;;;16.25;4.35;;;4.70;99.90;;;;;;5014079;28;20044;-73
2022/05/04 04:51:55;;;;;;;18.42;4.55;;;4.80;99.90;;;;;;5014375;28;20022;-72
2022/05/04 04:54:20;;;;;;;16.23;4.35;;;4.80;99.90;;;;;;5014718;28;20064;-73
2022/05/04 04:56:46;;;;;;;7.25;3.67;;;4.90;99.90;;;;;;5014198;28;20045;-73
2022/05/04 04:59:11;;;;;;;8.98;4.07;;;5.00;99.90;;;;;;5014566;28;20065;-72
2022/05/04 05:01:37;;;;;;;11.65;4.85;;;5.10;99.90;;;;;;5014942;28;20030;-72
2022/05/04 05:04:02;;;;;;;14.32;4.93;;;5.20;99.90;;;;;;5012995;28;20025;-73
2022/05/04 05:06:30;;;;;;;19.67;5.28;;;5.20;99.90;;;;;;5014581;28;20145;-73
2022/05/04 05:08:55;;;;;;;15.75;5.30;;;5.40;99.90;;;;;;5013789;28;20095;-73
2022/05/04 05:11:21;;;;;;;8.65;4.20;;;5.50;99.90;;;;;;5014784;28;20466;-73
2022/05/04 05:16:31;;;;;;;13.93;4.75;;;5.80;99.90;;;;;;5014655;28;20083;-72
2022/05/04 05:18:56;;;;;;;17.52;5.18;;;5.90;99.90;;;;;;5014234;28;20037;-72
2022/05/04 05:21:22;;;;;;;21.48;4.85;;;6.00;99.90;;;;;;5014255;28;20077;-72
2022/05/04 05:23:47;;;;;;;11.93;4.65;;;6.10;99.90;;;;;;5013632;28;20501;-72
2022/05/04 05:26:13;;;;;;;14.55;5.15;;;6.20;99.90;;;;;;5014160;28;20501;-72
2022/05/04 05:28:38;;;;;;;14.18;5.13;;;6.40;99.90;;;;;;5014271;28;20532;-72
2022/05/04 05:31:04;;;;;;;20.77;5.50;;;6.50;99.90;;;;;;5014258;28;20030;-72
2022/05/04 05:33:29;;;;;;;22.00;5.68;;;6.60;99.90;;;;;;5013498;28;20474;-72
2022/05/04 05:35:55;;;;;;;11.50;4.72;;;6.70;99.90;;;;;;5014095;28;20470;-72
2022/05/04 05:38:20;;;;;;;15.93;5.63;;;6.90;99.90;;;;;;5014031;28;20021;-72
2022/05/04 05:40:47;;;;;;;25.88;5.50;;;7.10;99.90;;;;;;5014555;28;20028;-72
2022/05/04 05:43:12;;;;;;;19.02;5.13;;;7.10;99.90;;;;;;5020227;23;20065;-69
2022/05/04 05:45:38;;;;;;;31.20;6.20;;;7.20;99.90;;;;;;4994133;28;20031;-69
2022/05/04 05:48:04;;;;;;;17.98;5.13;;;7.30;99.90;;;;;;4994380;28;20072;-68
2022/05/04 05:50:30;;;;;;;19.27;4.70;;;7.40;99.90;;;;;;4997038;28;20049;-68
2022/05/04 05:52:56;;;;;;;15.98;4.50;;;7.60;99.90;;;;;;5002346;28;20046;-68
2022/05/04 05:55:22;;;;;;;22.17;4.93;;;7.70;99.90;;;;;;5017450;28;20026;-68
2022/05/04 05:57:48;;;;;;;12.43;4.60;;;7.70;99.90;;;;;;5017285;28;20462;-68
2022/05/04 06:00:14;;;;;;;24.88;5.68;;;7.80;99.90;;;;;;5017076;28;20477;-68
2022/05/04 06:02:39;;;;;;;33.92;6.25;;;7.80;99.90;;;;;;5016521;28;20022;-68
2022/05/04 06:05:05;;;;;;;11.32;3.67;;;7.90;99.90;;;;;;5016975;28;20030;-68
2022/05/04 06:07:31;;;;;;;12.55;3.33;;;8.00;99.90;;;;;;5017378;28;20369;-68
2022/05/04 06:09:56;;;;;;;19.98;4.30;;;8.20;99.90;;;;;;5016825;28;20029;-68
2022/05/04 06:12:22;;;;;;;11.02;3.55;;;8.20;99.90;;;;;;5016265;28;20384;-68
2022/05/04 06:14:48;;;;;;;17.88;3.53;;;8.30;99.90;;;;;;5016767;28;20553;-68
2022/05/04 06:17:13;;;;;;;16.45;3.13;;;8.40;99.90;;;;;;5015404;28;20029;-68
2022/05/04 06:19:39;;;;;;;7.28;2.85;;;8.60;99.90;;;;;;5016999;28;20053;-68
2022/05/04 06:22:05;;;;;;;7.90;2.22;;;8.80;99.90;;;;;;5016136;28;20478;-68
2022/05/04 06:24:30;;;;;;;15.88;3.25;;;8.90;99.90;;;;;;5016493;28;20377;-67
2022/05/04 06:26:56;;;;;;;10.95;2.63;;;9.00;99.90;;;;;;5016835;28;20026;-68
2022/05/04 06:34:06;;;;;;;12.55;2.40;;;9.10;99.90;;;;;;5016490;28;20381;-68
2022/05/04 06:34:51;;;;;;;;;;;9.30;99.90;;;;;;5017146;28;20084;-66
2022/05/04 06:37:17;;;;;;;15.73;2.67;;;9.30;99.90;;;;;;5015770;28;19913;-68
2022/05/04 06:39:42;;;;;;;14.57;1.98;;;9.30;99.90;;;;;;5016297;28;20033;-68
2022/05/04 06:42:08;;;;;;;7.20;2.30;;;9.40;99.90;;;;;;5016285;28;20026;-68
2022/05/04 06:44:37;;;;;;;9.98;2.08;;;9.50;99.90;;;;;;5016103;28;20391;-68
2022/05/04 06:47:03;;;;;;;14.27;2.03;;;9.60;99.90;;;;;;5016182;28;20022;-68
2022/05/04 06:49:29;;;;;;;10.98;2.10;;;9.70;99.90;;;;;;5016132;28;20381;-68
2022/05/04 06:51:54;;;;;;;11.00;2.63;;;9.70;99.90;;;;;;5015718;28;20062;-68
2022/05/04 06:54:20;;;;;;;8.75;2.30;;;9.60;99.90;;;;;;5016005;28;20108;-68
2022/05/04 06:56:45;;;;;;;12.00;2.13;;;9.60;99.90;;;;;;5016826;28;20077;-68
2022/05/04 06:59:11;;;;;;;10.98;2.85;;;9.60;99.90;;;;;;5014978;28;20034;-68
2022/05/04 07:01:36;;;;;;;11.75;2.67;;;9.60;99.90;;;;;;5015308;28;20488;-68
2022/05/04 07:04:02;;;;;;;7.88;1.83;;;9.60;99.90;;;;;;5016091;28;20518;-68
2022/05/04 07:06:27;;;;;;;9.18;1.75;;;9.60;99.90;;;;;;5015816;28;20084;-68
2022/05/04 07:08:53;;;;;;;8.00;2.15;;;9.70;99.90;;;;;;5015898;28;20021;-68
2022/05/04 07:11:18;;;;;;;13.05;2.10;;;9.70;99.90;;;;;;5015785;28;20026;-68
2022/05/04 07:13:44;;;;;;;6.13;2.13;;;9.70;99.90;;;;;;5015079;28;20030;-68
2022/05/04 07:16:10;;;;;;;11.63;2.60;;;9.80;99.90;;;;;;5015620;28;20026;-68
2022/05/04 07:18:36;;;;;;;10.27;1.65;;;9.80;99.90;;;;;;5015858;28;20047;-68
2022/05/04 07:21:01;;;;;;;9.85;1.83;;;10.00;99.90;;;;;;5015825;28;20065;-68
2022/05/04 07:23:27;;;;;;;6.32;1.70;;;10.20;99.90;;;;;;5015379;28;20034;-68
2022/05/04 07:25:54;;;;;;;10.93;1.90;;;10.20;99.90;;;;;;5015066;28;20026;-68
2022/05/04 07:28:20;;;;;;;8.82;1.65;;;10.30;99.90;;;;;;5015318;28;20026;-68
2022/05/04 07:30:45;;;;;;;13.90;1.90;;;10.40;99.90;;;;;;5015311;28;20097;-68
2022/05/04 07:33:11;;;;;;;3.05;1.15;;;10.40;99.90;;;;;;5015359;28;20041;-68
2022/05/04 07:35:37;;;;;;;12.27;1.95;;;10.40;99.90;;;;;;5015242;28;20033;-68
2022/05/04 07:38:02;;;;;;;11.15;2.15;;;10.70;99.90;;;;;;5015721;28;20050;-68
2022/05/04 07:43:32;;;;;;;11.93;2.80;;;11.00;99.90;;;;;;4973399;28;20514;-68
2022/05/04 07:45:57;;;;;;;8.68;1.90;;;10.90;99.90;;;;;;4974298;28;20046;-68
2022/05/04 07:48:23;;;;;;;6.60;1.60;;;10.80;99.90;;;;;;4993035;28;20038;-68
2022/05/04 07:50:49;;;;;;;4.95;1.23;;;10.80;99.90;;;;;;5015154;28;20022;-68
2022/05/04 07:53:14;;;;;;;4.85;1.85;;;11.20;99.90;;;;;;5015255;28;20490;-68
2022/05/04 07:55:40;;;;;;;11.98;1.35;;;11.40;99.90;;;;;;5015131;28;20034;-68
2022/05/04 07:58:05;;;;;;;5.13;1.60;;;11.50;99.90;;;;;;5014370;28;20034;-68
2022/05/04 08:05:59;;;;;;;12.48;1.92;;;11.90;99.90;;;;;;5015067;28;20384;-68
2022/05/04 08:08:25;;;;;;;4.50;1.80;;;11.60;99.90;;;;;;5014549;28;20038;-68
2022/05/04 08:10:50;;;;;;;11.50;1.92;;;11.40;99.90;;;;;;5013789;28;20382;-68
2022/05/04 08:13:19;;;;;;;10.80;1.63;;;11.40;99.90;;;;;;5014461;28;20092;-68
2022/05/04 08:15:45;;;;;;;16.05;2.22;;;11.30;99.90;;;;;;5014829;28;20021;-68
2022/05/04 08:18:11;;;;;;;8.65;1.83;;;11.40;99.90;;;;;;5014436;28;20026;-68
2022/05/04 08:20:37;;;;;;;9.65;1.90;;;11.40;99.90;;;;;;5014363;28;20367;-68
2022/05/04 08:23:03;;;;;;;9.55;1.58;;;11.70;99.90;;;;;;5014270;28;20025;-68
2022/05/04 08:25:29;;;;;;;8.23;1.98;;;12.10;99.90;;;;;;5013833;28;20018;-68
2022/05/04 08:27:54;;;;;;;18.98;1.67;;;12.10;99.90;;;;;;5014511;28;20017;-68
2022/05/04 08:30:20;;;;;;;7.60;1.75;;;12.10;99.90;;;;;;5014198;28;20037;-67
2022/05/04 08:32:47;;;;;;;6.97;1.23;;;12.00;99.90;;;;;;5014247;28;20029;-67
2022/05/04 08:35:13;;;;;;;11.77;1.80;;;12.20;99.90;;;;;;5013719;28;20028;-68
2022/05/04 08:37:39;;;;;;;9.57;1.98;;;12.60;99.90;;;;;;5014218;28;20112;-68
2022/05/04 08:40:05;;;;;;;8.43;1.75;;;12.50;99.90;;;;;;5014080;28;20117;-68
2022/05/04 08:42:31;;;;;;;2.95;1.40;;;12.30;99.90;;;;;;5014290;28;20034;-68
2022/05/04 08:44:58;;;;;;;5.10;1.50;;;12.20;99.90;;;;;;5014029;28;20056;-68
2022/05/04 08:47:30;;;;;;;5.78;1.88;;;12.20;99.90;;;;;;5013554;28;20153;-68
2022/05/04 08:49:56;;;;;;;12.82;1.77;;;12.20;99.90;;;;;;5013923;28;20026;-68
2022/05/04 08:52:21;;;;;;;5.68;1.50;;;12.20;99.90;;;;;;5014192;28;20033;-68
2022/05/04 08:54:49;;;;;;;10.98;1.58;;;12.20;99.90;;;;;;5014106;28;20034;-67
2022/05/04 08:57:15;;;;;;;9.05;1.63;;;12.20;99.90;;;;;;5013644;28;20112;-68
2022/05/04 08:59:43;;;;;;;7.80;2.25;;;12.00;99.90;;;;;;5014282;28;20109;-68
2022/05/04 09:02:10;;;;;;;8.27;1.80;;;11.90;99.90;;;;;;5014073;28;20477;-68
2022/05/04 09:04:35;;;;;;;7.72;1.35;;;11.90;99.90;;;;;;5014001;28;20037;-68
2022/05/04 09:07:01;;;;;;;4.18;1.35;;;12.00;99.90;;;;;;5013883;28;20029;-68
2022/05/04 09:09:27;;;;;;;9.43;1.60;;;12.50;99.90;;;;;;5013956;28;20072;-67
2022/05/04 09:11:53;;;;;;;10.45;2.13;;;12.70;99.90;;;;;;5013439;28;20029;-68
2022/05/04 09:14:20;;;;;;;5.50;1.40;;;12.40;99.90;;;;;;5013644;28;20389;-68
2022/05/04 09:16:49;;;;;;;9.90;1.50;;;12.20;99.90;;;;;;5014128;28;20109;-67
2022/05/04 09:19:20;;;;;;;11.75;1.48;;;12.20;99.90;;;;;;5014253;28;20036;-67
2022/05/04 09:21:47;;;;;;;4.50;1.35;;;12.50;99.90;;;;;;5013405;28;20429;-68
2022/05/04 09:24:26;;;;;;;13.95;2.30;;;12.50;99.90;;;;;;5016128;28;20501;-68
2022/05/04 09:26:54;;;;;;;8.38;1.75;;;12.80;99.90;;;;;;5017913;28;20101;-68
2022/05/04 09:29:20;;;;;;;6.10;1.85;;;12.70;99.90;;;;;;5017856;28;20057;-68
2022/05/04 09:31:47;;;;;;;4.95;1.63;;;12.90;99.90;;;;;;5017099;28;20489;-68
2022/05/04 09:34:13;;;;;;;7.15;1.70;;;13.20;99.90;;;;;;5017595;28;20466;-67
2022/05/04 09:44:54;;;;;;;8.82;1.92;;;13.20;99.90;;;;;;5017577;28;20026;-68
2022/05/04 09:45:10;;;;;;;8.77;1.65;;;12.50;99.90;;;;;;5017663;28;20048;-67
2022/05/04 09:47:37;;;;;;;6.95;1.30;;;12.30;99.90;;;;;;5017661;28;20029;-67
2022/05/04 09:50:04;;;;;;;7.72;1.98;;;12.40;99.90;;;;;;5017135;28;20033;-67
2022/05/04 09:52:43;;;;;;;7.25;1.50;;;12.40;99.90;;;;;;5016709;28;20022;-68
2022/05/04 09:55:22;;;;;;;5.20;1.73;;;12.70;99.90;;;;;;5017217;28;20470;-68
2022/05/04 09:57:48;;;;;;;4.88;1.17;;;13.00;99.90;;;;;;5017404;28;20033;-67
2022/05/04 10:00:18;;;;;;;8.40;1.13;;;12.80;99.90;;;;;;5017059;28;20486;-68
2022/05/04 10:02:44;;;;;;;8.18;1.75;;;12.70;99.90;;;;;;5017423;28;20400;-69
2022/05/04 10:05:10;;;;;;;9.82;1.90;;;12.60;99.90;;;;;;5016622;28;20022;-70
2022/05/04 10:07:37;;;;;;;8.68;2.45;;;12.70;99.90;;;;;;5017108;28;20030;-70
2022/05/04 10:10:07;;;;;;;9.32;1.70;;;12.90;99.90;;;;;;5017169;28;20041;-70
2022/05/04 10:12:40;;;;;;;5.30;1.30;;;13.10;99.90;;;;;;5016782;28;20105;-70
2022/05/04 10:15:08;;;;;;;12.57;1.95;;;13.30;99.90;;;;;;5016938;28;20436;-71
2022/05/04 10:17:35;;;;;;;8.48;1.88;;;13.30;99.90;;;;;;5016516;28;20085;-70
2022/05/04 10:20:32;;;;;;;9.40;1.90;;;13.20;99.90;;;;;;5016738;28;20034;-70
2022/05/04 10:23:12;;;;;;;6.45;2.28;;;13.30;99.90;;;;;;5002542;28;20053;-70
2022/05/04 10:25:38;;;;;;;6.05;1.90;;;13.20;99.90;;;;;;5016442;28;20113;-71
2022/05/04 10:28:10;;;;;;;6.05;1.75;;;12.90;99.90;;;;;;5016584;28;20029;-71
2022/05/04 10:30:44;;;;;;;4.43;1.40;;;13.00;99.90;;;;;;5016600;28;20029;-71
2022/05/04 10:33:10;;;;;;;6.53;1.52;;;13.20;99.90;;;;;;5015125;28;20022;-71
2022/05/04 10:35:40;;;;;;;16.13;2.33;;;13.90;99.90;;;;;;5015588;28;20497;-71
2022/05/04 10:38:07;;;;;;;12.02;2.92;;;14.10;99.90;;;;;;5016645;28;20026;-68
2022/05/04 10:40:43;;;;;;;7.25;1.92;;;14.50;99.90;;;;;;5016241;28;20018;-68
2022/05/04 10:43:18;;;;;;;7.30;1.30;;;14.90;99.90;;;;;;5016190;28;20042;-68
2022/05/04 10:45:48;;;;;;;11.05;1.95;;;15.60;99.90;;;;;;5016622;28;20033;-67
2022/05/04 10:48:20;;;;;;;7.28;2.15;;;16.00;99.90;;;;;;5016555;28;20058;-67
2022/05/04 10:51:04;;;;;;;6.43;1.60;;;16.00;99.90;;;;;;5015853;28;20028;-67
2022/05/04 10:53:29;;;;;;;;;;;15.80;99.90;;;;;;5016780;28;20022;-67
2022/05/04 10:56:16;;;;;;;8.30;1.90;;;15.30;99.90;;;;;;5016580;28;20012;-67
2022/05/04 10:58:45;;;;;;;6.45;1.50;;;14.80;99.90;;;;;;5015997;28;20406;-67
2022/05/04 11:01:18;;;;;;;8.95;1.92;;;13.90;99.90;;;;;;5015699;28;20433;-67
2022/05/04 11:03:54;;;;;;;10.57;2.55;;;13.40;99.90;;;;;;5016067;28;20018;-67
2022/05/04 11:06:24;;;;;;;19.33;5.00;;;13.30;99.90;;;;;;5016170;28;20089;-67
2022/05/04 11:08:51;;;;;;;9.93;2.00;;;13.40;99.90;;;;;;5015649;28;20040;-67
2022/05/04 11:11:20;;;;;;;7.93;1.60;;;13.30;99.90;;;;;;5015625;28;20041;-67
2022/05/04 11:13:46;;;;;;;8.20;1.90;;;13.20;99.90;;;;;;5015524;28;20022;-67
2022/05/04 11:16:13;;;;;;;6.28;2.13;;;13.40;99.90;;;;;;5015586;28;20026;-67
2022/05/04 11:18:38;;;;;;;10.20;1.95;;;13.60;99.90;;;;;;5015821;28;20026;-67
2022/05/04 11:21:13;;;;;;;7.82;1.48;;;13.60;99.90;;;;;;5015556;28;20036;-67
2022/05/04 11:23:39;;;;;;;10.45;1.63;;;13.80;99.90;;;;;;5015727;28;20030;-67
2022/05/04 11:26:05;;;;;;;8.57;1.95;;;13.90;99.90;;;;;;5014989;28;20026;-68
2022/05/04 11:28:31;;;;;;;12.25;2.55;;;14.10;99.90;;;;;;5015603;28;20033;-67
2022/05/04 11:30:56;;;;;;;11.93;1.85;;;13.80;99.90;;;;;;5015463;28;20018;-67
2022/05/04 11:33:22;;;;;;;9.57;1.27;;;13.70;99.90;;;;;;5015038;28;20029;-66
2022/05/04 11:35:54;;;;;;;13.65;2.08;;;13.60;99.90;;;;;;5015381;28;20105;-67
2022/05/04 11:38:22;;;;;;;9.02;1.98;;;13.50;99.90;;;;;;5015974;28;20057;-67
2022/05/04 11:40:49;;;;;;;6.25;1.65;;;13.60;99.90;;;;;;5015478;28;20032;-67
2022/05/04 11:43:33;;;;;;;2.78;1.30;;;13.60;99.90;;;;;;5033164;23;20037;-68
2022/05/04 11:46:03;;;;;;;9.35;1.40;;;13.70;99.90;;;;;;4995203;28;20373;-68
2022/05/04 11:48:30;;;;;;;13.93;1.92;;;13.70;99.90;;;;;;4995675;28;20026;-67
2022/05/04 11:50:56;;;;;;;6.00;1.58;;;13.90;99.90;;;;;;4995987;28;20033;-67
2022/05/04 11:53:21;;;;;;;6.97;1.88;;;13.90;99.90;;;;;;4998562;28;20025;-67
2022/05/04 11:55:47;;;;;;;8.02;1.50;;;13.90;99.90;;;;;;5014863;28;20390;-67
2022/05/04 11:58:15;;;;;;;14.50;1.90;;;13.80;99.90;;;;;;5014458;28;20021;-67
2022/05/04 12:00:42;;;;;;;8.05;1.55;;;13.90;99.90;;;;;;5015096;28;20026;-67
2022/05/04 12:03:08;;;;;;;8.93;1.63;;;14.20;99.90;;;;;;5015128;28;20120;-67
2022/05/04 12:05:35;;;;;;;6.60;1.67;;;14.60;99.90;;;;;;5014977;28;20026;-68
2022/05/04 12:08:04;;;;;;;7.60;1.63;;;15.50;99.90;;;;;;5014698;28;20041;-69
2022/05/04 12:10:31;;;;;;;8.65;1.40;;;15.80;99.90;;;;;;5014040;28;20030;-69
2022/05/04 12:12:58;;;;;;;5.05;1.33;;;15.80;99.90;;;;;;5014598;28;20041;-69
2022/05/04 12:15:26;;;;;;;8.82;1.52;;;16.00;99.90;;;;;;5014747;28;20477;-68
2022/05/04 12:17:58;;;;;;;6.90;1.60;;;16.20;99.90;;;;;;5014478;28;20109;-68
2022/05/04 12:20:24;;;;;;;6.80;1.77;;;16.30;99.90;;;;;;5014036;28;20025;-67
2022/05/04 12:22:50;;;;;;;7.32;1.42;;;16.20;99.90;;;;;;5014505;28;20026;-67
2022/05/04 12:25:18;;;;;;;11.70;1.73;;;16.00;99.90;;;;;;5014320;28;20533;-68
2022/05/04 12:27:44;;;;;;;6.45;1.55;;;15.40;99.90;;;;;;5014584;28;20029;-67
2022/05/04 12:33:08;;;;;;;11.32;1.75;;;14.40;99.90;;;;;;5014624;28;20032;-67
2022/05/04 12:35:44;;;;;;;5.88;2.03;;;14.80;99.90;;;;;;5014504;28;20026;-67
2022/05/04 12:38:13;;;;;;;6.40;1.30;;;15.90;99.90;;;;;;5014376;28;20026;-67
2022/05/04 12:40:39;;;;;;;13.50;1.92;;;15.90;99.90;;;;;;5013840;28;20057;-68
2022/05/04 12:43:05;;;;;;;6.43;1.92;;;15.80;99.90;;;;;;5013931;28;20026;-68
2022/05/04 12:45:33;;;;;;;6.65;1.55;;;16.10;99.90;;;;;;5014074;28;20030;-68
2022/05/04 12:47:59;;;;;;;6.25;1.55;;;16.40;99.90;;;;;;5013530;28;20034;-67
2022/05/04 12:50:26;;;;;;;7.28;1.33;;;17.00;99.90;;;;;;5014166;28;20032;-68
2022/05/04 12:52:53;;;;;;;9.95;2.15;;;17.70;99.90;;;;;;5013916;28;20018;-68
2022/05/04 12:55:19;;;;;;;6.07;1.65;;;18.40;99.90;;;;;;5014002;28;20018;-68
2022/05/04 12:57:44;;;;;;;8.80;1.52;;;18.40;99.90;;;;;;5014010;28;20083;-68
2022/05/04 13:00:14;;;;;;;12.32;2.47;;;18.00;99.50;;;;;;5014172;28;20421;-69
2022/05/04 13:02:42;;;;;;;7.68;2.13;;;17.60;99.90;;;;;;5013177;28;20551;-68
2022/05/04 13:05:09;;;;;;;13.40;1.75;;;17.60;99.90;;;;;;5013923;28;20030;-67
2022/05/04 13:07:35;;;;;;;8.88;1.40;;;17.00;99.90;;;;;;5013988;28;20367;-67
2022/05/04 13:10:02;;;;;;;8.45;1.60;;;16.50;99.90;;;;;;5013864;28;20061;-67
2022/05/04 13:12:28;;;;;;;8.35;2.03;;;16.20;99.90;;;;;;5013862;28;20026;-67
2022/05/04 13:14:53;;;;;;;6.75;1.50;;;16.30;99.90;;;;;;5013362;28;20033;-68
2022/05/04 13:17:19;;;;;;;5.60;1.80;;;16.20;99.90;;;;;;5013961;28;20017;-68
2022/05/04 13:19:45;;;;;;;11.10;2.85;;;15.80;99.90;;;;;;5013638;28;20048;-68